createdAt,value
2018-05-31T00:00:45.782Z,63.69
2018-05-31T00:01:45.815Z,64.56
2018-05-31T00:02:45.840Z,64.75
2018-05-31T00:03:45.869Z,64.66
2018-05-31T00:04:45.905Z,64.95
2018-05-31T00:05:45.929Z,64.89
2018-05-31T00:06:45.962Z,65.05
2018-05-31T00:07:45.993Z,65.27
2018-05-31T00:08:46.022Z,65.43
2018-05-31T00:09:46.051Z,65.14
2018-05-31T00:10:46.079Z,65.14
2018-05-31T00:11:46.107Z,65.72
2018-05-31T00:12:46.137Z,65.43
2018-05-31T00:13:46.168Z,65.43
2018-05-31T00:14:46.203Z,66.02
2018-05-31T00:15:46.234Z,66.69
2018-05-31T00:16:46.259Z,67.18
2018-05-31T00:17:46.289Z,67.08
2018-05-31T00:18:46.319Z,67.46
2018-05-31T00:19:46.350Z,67.76
2018-05-31T00:20:46.387Z,68.05
2018-05-31T00:21:46.415Z,68.33
2018-05-31T00:22:46.437Z,68.15
2018-05-31T00:23:46.475Z,68.53
2018-05-31T00:24:46.498Z,68.33
2018-05-31T00:25:46.536Z,68.73
2018-05-31T00:26:46.560Z,68.73
2018-05-31T00:27:46.588Z,68.73
2018-05-31T00:28:46.617Z,68.82
2018-05-31T00:29:46.648Z,69.11
2018-05-31T00:30:46.729Z,69.08
2018-05-31T00:31:46.704Z,69.59
2018-05-31T00:32:46.747Z,69.40
2018-05-31T00:33:46.767Z,70.14
2018-05-31T00:34:46.797Z,69.75
2018-05-31T00:35:46.827Z,70.27
2018-05-31T00:36:46.856Z,70.24
2018-05-31T00:37:46.888Z,70.43
2018-05-31T00:38:46.919Z,70.53
2018-05-31T00:39:46.946Z,70.24
2018-05-31T00:40:46.982Z,70.43
2018-05-31T00:41:47.003Z,70.43
2018-05-31T00:42:47.037Z,70.34
2018-05-31T00:43:47.070Z,71.01
2018-05-31T00:44:47.098Z,70.72
2018-05-31T00:45:47.126Z,71.20
2018-05-31T00:46:47.157Z,70.92
2018-05-31T00:47:47.193Z,70.14
2018-05-31T00:48:47.217Z,70.34
2018-05-31T00:49:47.246Z,70.62
2018-05-31T00:50:47.276Z,69.85
2018-05-31T00:51:47.304Z,70.04
2018-05-31T00:52:47.331Z,69.85
2018-05-31T00:53:47.363Z,69.66
2018-05-31T00:54:47.396Z,69.85
2018-05-31T00:55:47.428Z,70.34
2018-05-31T00:56:47.452Z,70.34
2018-05-31T00:57:47.486Z,70.04
2018-05-31T00:58:47.515Z,69.85
2018-05-31T00:59:47.546Z,69.56
2018-05-31T01:00:47.579Z,69.27
2018-05-31T01:01:47.604Z,69.17
2018-05-31T01:02:47.640Z,69.17
2018-05-31T01:03:47.666Z,69.46
2018-05-31T01:04:47.692Z,69.27
2018-05-31T01:05:47.727Z,69.46
2018-05-31T01:06:47.753Z,69.08
2018-05-31T01:07:47.782Z,69.08
2018-05-31T01:08:47.811Z,69.27
2018-05-31T01:09:47.843Z,69.72
2018-05-31T01:10:47.870Z,69.33
2018-05-31T01:11:47.903Z,69.24
2018-05-31T01:12:47.930Z,69.92
2018-05-31T01:13:47.966Z,69.72
2018-05-31T01:14:47.987Z,70.20
2018-05-31T01:15:48.019Z,69.98
2018-05-31T01:16:48.051Z,69.82
2018-05-31T01:17:48.080Z,69.92
2018-05-31T01:18:48.116Z,69.72
2018-05-31T01:19:48.136Z,69.92
2018-05-31T01:20:48.171Z,69.82
2018-05-31T01:21:48.198Z,69.82
2018-05-31T01:22:48.226Z,70.01
2018-05-31T01:23:48.253Z,69.62
2018-05-31T01:24:48.285Z,69.24
2018-05-31T01:25:48.318Z,68.95
2018-05-31T01:26:48.344Z,68.66
2018-05-31T01:27:48.375Z,68.66
2018-05-31T01:28:48.405Z,68.66
2018-05-31T01:29:48.431Z,68.72
2018-05-31T01:30:48.465Z,69.40
2018-05-31T01:31:48.495Z,68.72
2018-05-31T01:32:48.523Z,68.37
2018-05-31T01:33:48.552Z,68.14
2018-05-31T01:34:48.581Z,67.94
2018-05-31T01:35:48.610Z,68.24
2018-05-31T01:36:48.642Z,67.75
2018-05-31T01:37:48.671Z,67.46
2018-05-31T01:38:48.705Z,67.40
2018-05-31T01:39:48.725Z,67.66
2018-05-31T01:40:48.755Z,67.36
2018-05-31T01:41:48.784Z,67.46
2018-05-31T01:42:48.823Z,67.75
2018-05-31T01:43:48.848Z,67.66
2018-05-31T01:44:48.879Z,67.91
2018-05-31T01:45:48.908Z,68.24
2018-05-31T01:46:48.942Z,67.85
2018-05-31T01:47:48.964Z,67.17
2018-05-31T01:48:48.995Z,66.78
2018-05-31T01:49:49.020Z,67.17
2018-05-31T01:50:49.054Z,67.36
2018-05-31T01:51:49.080Z,66.88
2018-05-31T01:52:49.110Z,66.88
2018-05-31T01:53:49.153Z,66.78
2018-05-31T01:54:49.170Z,66.88
2018-05-31T01:55:49.200Z,66.78
2018-05-31T01:56:49.235Z,66.98
2018-05-31T01:57:49.263Z,66.78
2018-05-31T01:58:49.284Z,67.17
2018-05-31T01:59:49.317Z,66.88
2018-05-31T02:00:49.349Z,66.94
2018-05-31T02:01:49.375Z,66.85
2018-05-31T02:02:49.403Z,67.04
2018-05-31T02:03:49.434Z,67.24
2018-05-31T02:04:49.465Z,67.72
2018-05-31T02:05:49.495Z,67.97
2018-05-31T02:06:49.530Z,67.62
2018-05-31T02:07:49.555Z,67.20
2018-05-31T02:08:49.579Z,67.11
2018-05-31T02:09:49.610Z,67.43
2018-05-31T02:10:49.640Z,67.33
2018-05-31T02:11:49.670Z,67.33
2018-05-31T02:12:49.698Z,67.04
2018-05-31T02:13:49.730Z,67.20
2018-05-31T02:14:49.759Z,66.75
2018-05-31T02:15:49.784Z,66.75
2018-05-31T02:16:49.814Z,66.66
2018-05-31T02:17:49.857Z,66.85
2018-05-31T02:18:49.877Z,66.75
2018-05-31T02:19:49.904Z,66.46
2018-05-31T02:20:49.935Z,66.27
2018-05-31T02:21:49.959Z,66.27
2018-05-31T02:22:49.997Z,66.36
2018-05-31T02:23:50.018Z,66.46
2018-05-31T02:24:50.050Z,66.94
2018-05-31T02:25:50.079Z,67.24
2018-05-31T02:26:50.108Z,67.14
2018-05-31T02:27:50.137Z,66.85
2018-05-31T02:28:50.168Z,67.11
2018-05-31T02:29:50.194Z,66.94
2018-05-31T02:30:50.227Z,66.46
2018-05-31T02:31:50.253Z,66.17
2018-05-31T02:32:50.301Z,66.33
2018-05-31T02:33:50.309Z,66.17
2018-05-31T02:34:50.344Z,66.46
2018-05-31T02:35:50.373Z,66.27
2018-05-31T02:36:50.417Z,66.56
2018-05-31T02:37:50.432Z,66.27
2018-05-31T02:38:50.462Z,66.24
2018-05-31T02:39:50.488Z,66.14
2018-05-31T02:40:50.516Z,66.33
2018-05-31T02:41:50.552Z,65.85
2018-05-31T02:42:50.576Z,65.85
2018-05-31T02:43:50.602Z,66.05
2018-05-31T02:44:50.632Z,65.95
2018-05-31T02:45:50.663Z,65.17
2018-05-31T02:46:50.695Z,65.75
2018-05-31T02:47:50.722Z,65.85
2018-05-31T02:48:50.752Z,65.66
2018-05-31T02:49:50.781Z,65.47
2018-05-31T02:50:50.811Z,65.85
2018-05-31T02:51:50.837Z,65.66
2018-05-31T02:52:50.867Z,65.85
2018-05-31T02:53:50.901Z,65.66
2018-05-31T02:54:50.930Z,66.05
2018-05-31T02:55:50.955Z,65.85
2018-05-31T02:56:50.987Z,65.82
2018-05-31T02:57:51.016Z,66.14
2018-05-31T02:58:51.048Z,65.85
2018-05-31T02:59:51.073Z,65.43
2018-05-31T03:00:51.105Z,65.85
2018-05-31T03:01:51.134Z,65.37
2018-05-31T03:02:51.160Z,65.72
2018-05-31T03:03:51.191Z,65.75
2018-05-31T03:04:51.218Z,65.37
2018-05-31T03:05:51.251Z,65.34
2018-05-31T03:06:51.277Z,66.40
2018-05-31T03:07:51.367Z,66.40
2018-05-31T03:08:51.332Z,66.20
2018-05-31T03:09:51.363Z,66.20
2018-05-31T03:10:51.402Z,66.30
2018-05-31T03:11:51.421Z,66.20
2018-05-31T03:12:51.451Z,66.40
2018-05-31T03:13:51.482Z,66.78
2018-05-31T03:14:51.507Z,66.69
2018-05-31T03:15:51.541Z,66.78
2018-05-31T03:16:51.568Z,67.27
2018-05-31T03:17:51.598Z,67.17
2018-05-31T03:18:51.631Z,67.27
2018-05-31T03:19:51.664Z,67.17
2018-05-31T03:20:51.685Z,66.69
2018-05-31T03:21:51.711Z,66.40
2018-05-31T03:22:51.744Z,66.20
2018-05-31T03:23:51.766Z,66.20
2018-05-31T03:24:51.799Z,66.01
2018-05-31T03:25:51.828Z,66.78
2018-05-31T03:26:51.862Z,67.07
2018-05-31T03:27:51.887Z,67.27
2018-05-31T03:28:51.917Z,67.36
2018-05-31T03:29:51.942Z,67.85
2018-05-31T03:30:51.976Z,67.85
2018-05-31T03:31:52.004Z,67.46
2018-05-31T03:32:52.031Z,67.75
2018-05-31T03:33:52.061Z,67.75
2018-05-31T03:34:52.091Z,67.94
2018-05-31T03:35:52.116Z,68.10
2018-05-31T03:36:52.147Z,68.43
2018-05-31T03:37:52.184Z,67.46
2018-05-31T03:38:52.206Z,67.55
2018-05-31T03:39:52.238Z,67.27
2018-05-31T03:40:52.265Z,67.46
2018-05-31T03:41:52.310Z,67.85
2018-05-31T03:42:52.320Z,67.85
2018-05-31T03:43:52.353Z,67.75
2018-05-31T03:44:52.376Z,67.94
2018-05-31T03:45:52.410Z,68.13
2018-05-31T03:46:52.446Z,67.85
2018-05-31T03:47:52.470Z,67.85
2018-05-31T03:48:52.497Z,67.75
2018-05-31T03:49:52.571Z,67.85
2018-05-31T03:50:52.549Z,67.85
2018-05-31T03:51:52.583Z,67.85
2018-05-31T03:52:52.614Z,67.75
2018-05-31T03:53:52.640Z,67.55
2018-05-31T03:54:52.665Z,67.94
2018-05-31T03:55:52.699Z,67.27
2018-05-31T03:56:52.729Z,67.55
2018-05-31T03:57:52.756Z,67.75
2018-05-31T03:58:52.786Z,67.94
2018-05-31T03:59:52.810Z,67.85
2018-05-31T04:00:52.843Z,68.13
2018-05-31T04:01:52.874Z,67.94
2018-05-31T04:02:52.900Z,67.55
2018-05-31T04:03:52.933Z,67.85
2018-05-31T04:04:52.960Z,67.85
2018-05-31T04:05:52.985Z,68.13
2018-05-31T04:06:53.015Z,68.29
2018-05-31T04:07:53.046Z,68.49
2018-05-31T04:08:53.079Z,68.97
2018-05-31T04:09:53.099Z,69.10
2018-05-31T04:10:53.135Z,68.91
2018-05-31T04:11:53.159Z,69.16
2018-05-31T04:12:53.185Z,68.52
2018-05-31T04:13:53.219Z,68.49
2018-05-31T04:14:53.249Z,68.68
2018-05-31T04:15:53.275Z,68.59
2018-05-31T04:16:53.305Z,68.68
2018-05-31T04:17:53.337Z,68.59
2018-05-31T04:18:53.359Z,68.59
2018-05-31T04:19:53.389Z,68.49
2018-05-31T04:20:53.422Z,68.68
2018-05-31T04:21:53.447Z,69.16
2018-05-31T04:22:53.482Z,68.68
2018-05-31T04:23:53.503Z,68.77
2018-05-31T04:24:53.538Z,68.87
2018-05-31T04:25:53.568Z,68.97
2018-05-31T04:26:53.594Z,69.16
2018-05-31T04:27:53.622Z,69.07
2018-05-31T04:28:53.649Z,69.26
2018-05-31T04:29:53.682Z,68.87
2018-05-31T04:30:53.709Z,68.87
2018-05-31T04:31:53.740Z,68.29
2018-05-31T04:32:53.769Z,68.77
2018-05-31T04:33:53.793Z,68.29
2018-05-31T04:34:53.827Z,68.68
2018-05-31T04:35:53.855Z,68.68
2018-05-31T04:36:53.883Z,68.49
2018-05-31T04:37:53.910Z,68.77
2018-05-31T04:38:53.938Z,68.59
2018-05-31T04:39:53.963Z,69.16
2018-05-31T04:40:53.995Z,68.87
2018-05-31T04:41:54.030Z,68.49
2018-05-31T04:42:54.057Z,68.77
2018-05-31T04:43:54.087Z,68.29
2018-05-31T04:44:54.107Z,68.49
2018-05-31T04:45:54.139Z,68.39
2018-05-31T04:46:54.174Z,68.10
2018-05-31T04:47:54.198Z,68.19
2018-05-31T04:48:54.223Z,68.29
2018-05-31T04:49:54.256Z,68.10
2018-05-31T04:50:54.285Z,68.33
2018-05-31T04:51:54.312Z,67.62
2018-05-31T04:52:54.343Z,67.52
2018-05-31T04:53:54.375Z,67.85
2018-05-31T04:54:54.409Z,68.33
2018-05-31T04:55:54.432Z,68.13
2018-05-31T04:56:54.453Z,68.19
2018-05-31T04:57:54.490Z,67.81
2018-05-31T04:58:54.520Z,67.55
2018-05-31T04:59:54.545Z,67.55
2018-05-31T05:00:54.573Z,67.55
2018-05-31T05:01:54.603Z,67.85
2018-05-31T05:02:54.638Z,68.04
2018-05-31T05:03:54.658Z,67.27
2018-05-31T05:04:54.689Z,67.55
2018-05-31T05:05:54.716Z,67.55
2018-05-31T05:06:54.746Z,67.55
2018-05-31T05:07:54.776Z,67.75
2018-05-31T05:08:54.801Z,67.81
2018-05-31T05:09:54.832Z,67.65
2018-05-31T05:10:54.863Z,67.91
2018-05-31T05:11:54.886Z,67.55
2018-05-31T05:12:54.927Z,67.55
2018-05-31T05:13:54.946Z,67.85
2018-05-31T05:14:54.977Z,67.94
2018-05-31T05:15:55.001Z,67.55
2018-05-31T05:16:55.032Z,68.13
2018-05-31T05:17:55.065Z,68.23
2018-05-31T05:18:55.095Z,67.55
2018-05-31T05:19:55.125Z,67.85
2018-05-31T05:20:55.145Z,67.65
2018-05-31T05:21:55.177Z,67.94
2018-05-31T05:22:55.211Z,67.55
2018-05-31T05:23:55.236Z,67.75
2018-05-31T05:24:55.261Z,68.04
2018-05-31T05:25:55.292Z,68.52
2018-05-31T05:26:55.329Z,68.81
2018-05-31T05:27:55.352Z,68.81
2018-05-31T05:28:55.385Z,68.23
2018-05-31T05:29:55.406Z,67.85
2018-05-31T05:30:55.446Z,68.13
2018-05-31T05:31:55.466Z,68.33
2018-05-31T05:32:55.497Z,68.52
2018-05-31T05:33:55.534Z,68.33
2018-05-31T05:34:55.551Z,68.13
2018-05-31T05:35:55.582Z,68.52
2018-05-31T05:36:55.614Z,68.13
2018-05-31T05:37:55.641Z,67.75
2018-05-31T05:38:55.671Z,68.13
2018-05-31T05:39:55.697Z,68.23
2018-05-31T05:40:55.732Z,68.13
2018-05-31T05:41:55.758Z,68.33
2018-05-31T05:42:55.790Z,67.97
2018-05-31T05:43:55.818Z,67.59
2018-05-31T05:44:55.840Z,67.75
2018-05-31T05:45:55.879Z,67.85
2018-05-31T05:46:55.915Z,67.55
2018-05-31T05:47:55.937Z,68.23
2018-05-31T05:48:55.961Z,68.23
2018-05-31T05:49:55.988Z,67.78
2018-05-31T05:50:56.023Z,67.88
2018-05-31T05:51:56.045Z,67.88
2018-05-31T05:52:56.074Z,67.40
2018-05-31T05:53:56.106Z,67.30
2018-05-31T05:54:56.144Z,67.40
2018-05-31T05:55:56.170Z,66.72
2018-05-31T05:56:56.190Z,67.11
2018-05-31T05:57:56.221Z,67.01
2018-05-31T05:58:56.253Z,66.94
2018-05-31T05:59:56.280Z,66.75
2018-05-31T06:00:56.310Z,67.01
2018-05-31T06:01:56.414Z,66.43
2018-05-31T06:02:56.365Z,66.14
2018-05-31T06:03:56.396Z,66.14
2018-05-31T06:04:56.432Z,67.40
2018-05-31T06:05:56.454Z,67.43
2018-05-31T06:06:56.487Z,67.62
2018-05-31T06:07:56.509Z,67.33
2018-05-31T06:08:56.544Z,67.43
2018-05-31T06:09:56.627Z,66.17
2018-05-31T06:10:56.600Z,66.46
2018-05-31T06:11:56.629Z,65.88
2018-05-31T06:12:56.661Z,65.78
2018-05-31T06:13:56.687Z,65.50
2018-05-31T06:14:56.726Z,65.69
2018-05-31T06:15:56.745Z,65.50
2018-05-31T06:16:56.780Z,65.50
2018-05-31T06:17:56.802Z,65.98
2018-05-31T06:18:57.624Z,65.88
2018-05-31T06:19:56.860Z,65.43
2018-05-31T06:20:56.896Z,65.53
2018-05-31T06:21:56.980Z,65.72
2018-05-31T06:22:56.951Z,65.72
2018-05-31T06:23:56.986Z,65.24
2018-05-31T06:24:57.009Z,65.53
2018-05-31T06:25:57.035Z,65.14
2018-05-31T06:26:57.071Z,65.14
2018-05-31T06:27:57.099Z,65.92
2018-05-31T06:28:57.125Z,65.92
2018-05-31T06:29:57.156Z,65.82
2018-05-31T06:30:57.184Z,65.92
2018-05-31T06:31:57.209Z,65.24
2018-05-31T06:32:57.244Z,65.72
2018-05-31T06:33:57.273Z,65.92
2018-05-31T06:34:57.300Z,66.30
2018-05-31T06:35:57.331Z,66.11
2018-05-31T06:36:57.360Z,65.34
2018-05-31T06:37:57.392Z,66.05
2018-05-31T06:38:57.418Z,65.27
2018-05-31T06:39:57.452Z,65.85
2018-05-31T06:40:57.472Z,65.47
2018-05-31T06:41:57.508Z,65.95
2018-05-31T06:42:57.560Z,65.08
2018-05-31T06:43:57.565Z,65.17
2018-05-31T06:44:57.595Z,65.66
2018-05-31T06:45:57.622Z,65.95
2018-05-31T06:46:57.653Z,65.56
2018-05-31T06:47:57.687Z,65.47
2018-05-31T06:48:57.718Z,65.66
2018-05-31T06:49:57.743Z,65.95
2018-05-31T06:50:57.768Z,65.11
2018-05-31T06:51:57.797Z,65.50
2018-05-31T06:52:57.828Z,65.40
2018-05-31T06:53:57.866Z,65.20
2018-05-31T06:54:57.890Z,64.92
2018-05-31T06:55:57.919Z,64.53
2018-05-31T06:56:57.953Z,65.01
2018-05-31T06:57:57.978Z,64.92
2018-05-31T06:58:58.012Z,64.53
2018-05-31T06:59:58.033Z,65.11
2018-05-31T07:00:58.066Z,64.43
2018-05-31T07:01:58.116Z,64.53
2018-05-31T07:02:58.122Z,65.11
2018-05-31T07:03:58.152Z,64.14
2018-05-31T07:04:58.181Z,63.18
2018-05-31T07:05:58.226Z,62.79
2018-05-31T07:06:58.252Z,62.98
2018-05-31T07:07:58.275Z,63.56
2018-05-31T07:08:58.302Z,64.24
2018-05-31T07:09:58.336Z,63.98
2018-05-31T07:10:58.371Z,64.24
2018-05-31T07:11:58.396Z,64.47
2018-05-31T07:12:58.425Z,64.37
2018-05-31T07:13:58.453Z,64.47
2018-05-31T07:14:58.477Z,63.49
2018-05-31T07:15:58.553Z,62.72
2018-05-31T07:16:58.538Z,62.82
2018-05-31T07:17:58.568Z,62.72
2018-05-31T07:18:58.597Z,62.82
2018-05-31T07:19:58.627Z,63.21
2018-05-31T07:20:58.658Z,63.69
2018-05-31T07:21:58.689Z,63.69
2018-05-31T07:22:58.718Z,64.75
2018-05-31T07:23:58.748Z,64.47
2018-05-31T07:24:58.776Z,63.21
2018-05-31T07:25:58.806Z,63.98
2018-05-31T07:26:58.844Z,63.21
2018-05-31T07:27:58.886Z,62.72
2018-05-31T07:28:58.898Z,62.72
2018-05-31T07:29:58.928Z,62.72
2018-05-31T07:30:58.956Z,63.69
2018-05-31T07:31:58.992Z,63.04
2018-05-31T07:32:59.012Z,63.24
2018-05-31T07:33:59.049Z,63.04
2018-05-31T07:34:59.079Z,63.34
2018-05-31T07:35:59.114Z,63.92
2018-05-31T07:36:59.134Z,63.14
2018-05-31T07:37:59.166Z,62.66
2018-05-31T07:38:59.191Z,63.04
2018-05-31T07:39:59.234Z,61.98
2018-05-31T07:40:59.256Z,61.40
2018-05-31T07:41:59.281Z,61.49
2018-05-31T07:42:59.334Z,61.88
2018-05-31T07:43:59.342Z,61.79
2018-05-31T07:44:59.371Z,60.72
2018-05-31T07:45:59.402Z,60.24
2018-05-31T07:46:59.434Z,60.43
2018-05-31T07:47:59.463Z,60.52
2018-05-31T07:48:59.491Z,61.04
2018-05-31T07:49:59.537Z,61.04
2018-05-31T07:50:59.550Z,61.91
2018-05-31T07:51:59.584Z,62.01
2018-05-31T07:52:59.609Z,62.20
2018-05-31T07:53:59.650Z,61.62
2018-05-31T07:54:59.670Z,60.55
2018-05-31T07:55:59.696Z,60.36
2018-05-31T07:56:59.730Z,60.46
2018-05-31T07:57:59.809Z,60.46
2018-05-31T07:58:59.789Z,59.59
2018-05-31T07:59:59.824Z,59.49
2018-05-31T08:00:59.849Z,59.20
2018-05-31T08:01:59.879Z,58.91
2018-05-31T08:02:59.923Z,59.59
2018-05-31T08:03:59.934Z,60.07
2018-05-31T08:04:59.965Z,60.39
2018-05-31T08:06:00.059Z,59.42
2018-05-31T08:07:00.031Z,59.52
2018-05-31T08:08:00.059Z,58.94
2018-05-31T08:09:00.093Z,58.94
2018-05-31T08:10:00.120Z,58.26
2018-05-31T08:11:00.155Z,58.45
2018-05-31T08:12:00.177Z,58.45
2018-05-31T08:13:00.207Z,58.16
2018-05-31T08:14:00.239Z,58.26
2018-05-31T08:15:00.270Z,58.36
2018-05-31T08:16:00.303Z,57.97
2018-05-31T08:17:00.330Z,58.19
2018-05-31T08:18:00.359Z,57.80
2018-05-31T08:19:00.389Z,57.80
2018-05-31T08:20:00.424Z,57.90
2018-05-31T08:21:00.449Z,58.19
2018-05-31T08:22:00.479Z,58.58
2018-05-31T08:23:00.509Z,58.19
2018-05-31T08:24:00.539Z,57.80
2018-05-31T08:25:00.572Z,58.00
2018-05-31T08:26:00.603Z,57.70
2018-05-31T08:27:00.633Z,57.61
2018-05-31T08:28:00.660Z,56.96
2018-05-31T08:29:00.689Z,56.86
2018-05-31T08:30:00.722Z,56.96
2018-05-31T08:31:00.753Z,56.93
2018-05-31T08:32:00.786Z,57.12
2018-05-31T08:33:00.812Z,57.03
2018-05-31T08:34:00.839Z,57.03
2018-05-31T08:35:00.868Z,57.06
2018-05-31T08:36:00.903Z,56.86
2018-05-31T08:37:00.930Z,53.66
2018-05-31T08:38:00.965Z,54.44
2018-05-31T08:39:00.991Z,54.24
2018-05-31T08:40:01.023Z,54.82
2018-05-31T08:41:01.051Z,54.63
2018-05-31T08:42:01.079Z,54.85
2018-05-31T08:43:01.115Z,54.66
2018-05-31T08:44:01.183Z,54.75
2018-05-31T08:45:01.172Z,55.14
2018-05-31T08:46:01.210Z,56.01
2018-05-31T08:47:01.242Z,56.11
2018-05-31T08:48:01.268Z,56.01
2018-05-31T08:49:01.296Z,56.11
2018-05-31T08:50:01.332Z,56.01
2018-05-31T08:51:01.436Z,56.11
2018-05-31T08:52:01.384Z,56.21
2018-05-31T08:53:01.424Z,56.11
2018-05-31T08:54:01.444Z,57.08
2018-05-31T08:55:01.484Z,56.30
2018-05-31T08:56:01.508Z,54.85
2018-05-31T08:57:01.553Z,54.75
2018-05-31T08:58:01.571Z,54.36
2018-05-31T08:59:01.598Z,54.46
2018-05-31T09:00:01.629Z,54.17
2018-05-31T09:01:01.671Z,53.39
2018-05-31T09:02:01.686Z,53.10
2018-05-31T09:03:01.721Z,53.20
2018-05-31T09:04:01.748Z,52.62
2018-05-31T09:05:01.782Z,52.62
2018-05-31T09:06:01.808Z,52.72
2018-05-31T09:07:01.842Z,54.00
2018-05-31T09:08:01.868Z,54.85
2018-05-31T09:09:01.898Z,54.46
2018-05-31T09:10:01.935Z,54.78
2018-05-31T09:11:01.972Z,54.29
2018-05-31T09:12:01.987Z,53.42
2018-05-31T09:13:02.024Z,52.74
2018-05-31T09:14:02.057Z,52.94
2018-05-31T09:15:02.095Z,53.03
2018-05-31T09:16:02.113Z,53.42
2018-05-31T09:17:02.144Z,53.32
2018-05-31T09:18:02.173Z,52.64
2018-05-31T09:19:02.202Z,52.67
2018-05-31T09:20:02.234Z,53.06
2018-05-31T09:21:02.269Z,53.06
2018-05-31T09:22:02.308Z,53.16
2018-05-31T09:23:02.324Z,52.47
2018-05-31T09:24:02.353Z,52.37
2018-05-31T09:25:02.386Z,52.28
2018-05-31T09:26:02.426Z,52.19
2018-05-31T09:27:02.451Z,52.11
2018-05-31T09:28:02.477Z,52.11
2018-05-31T09:29:02.506Z,51.43
2018-05-31T09:30:02.536Z,51.62
2018-05-31T09:31:02.570Z,52.40
2018-05-31T09:32:02.601Z,52.40
2018-05-31T09:33:02.636Z,52.50
2018-05-31T09:34:02.658Z,52.40
2018-05-31T09:35:02.756Z,52.11
2018-05-31T09:36:02.718Z,51.92
2018-05-31T09:37:02.757Z,51.53
2018-05-31T09:38:02.782Z,51.43
2018-05-31T09:39:02.812Z,51.62
2018-05-31T09:40:02.844Z,51.53
2018-05-31T09:41:02.883Z,51.53
2018-05-31T09:42:02.906Z,52.11
2018-05-31T09:43:02.937Z,51.84
2018-05-31T09:44:02.972Z,51.75
2018-05-31T09:45:02.996Z,52.04
2018-05-31T09:46:03.026Z,51.65
2018-05-31T09:47:03.058Z,51.17
2018-05-31T09:48:03.090Z,51.65
2018-05-31T09:49:03.120Z,51.45
2018-05-31T09:50:03.154Z,51.45
2018-05-31T09:51:03.180Z,51.17
2018-05-31T09:52:03.216Z,51.26
2018-05-31T09:53:03.250Z,51.55
2018-05-31T09:54:03.278Z,51.75
2018-05-31T09:55:03.305Z,50.78
2018-05-31T09:56:03.340Z,51.94
2018-05-31T09:57:03.362Z,52.72
2018-05-31T09:58:03.397Z,52.62
2018-05-31T09:59:03.428Z,52.62
2018-05-31T10:00:03.457Z,52.43
2018-05-31T10:01:03.485Z,51.97
2018-05-31T10:02:03.525Z,51.58
2018-05-31T10:03:03.552Z,50.12
2018-05-31T10:04:03.582Z,50.02
2018-05-31T10:05:03.610Z,50.14
2018-05-31T10:06:03.651Z,48.78
2018-05-31T10:07:03.672Z,49.46
2018-05-31T10:08:03.707Z,49.27
2018-05-31T10:09:03.735Z,48.49
2018-05-31T10:10:03.767Z,48.41
2018-05-31T10:11:03.800Z,48.61
2018-05-31T10:12:03.828Z,48.71
2018-05-31T10:13:03.863Z,48.22
2018-05-31T10:14:03.890Z,47.63
2018-05-31T10:15:03.921Z,46.56
2018-05-31T10:16:03.996Z,46.30
2018-05-31T10:17:04.030Z,45.61
2018-05-31T10:18:04.015Z,45.39
2018-05-31T10:19:04.052Z,45.59
2018-05-31T10:20:04.078Z,45.59
2018-05-31T10:21:04.103Z,45.29
2018-05-31T10:22:04.135Z,46.08
2018-05-31T10:23:04.165Z,46.27
2018-05-31T10:24:04.200Z,46.49
2018-05-31T10:25:04.233Z,45.51
2018-05-31T10:26:04.261Z,46.00
2018-05-31T10:27:04.290Z,46.39
2018-05-31T10:28:04.325Z,46.20
2018-05-31T10:29:04.352Z,46.20
2018-05-31T10:30:04.422Z,45.64
2018-05-31T10:31:04.413Z,46.51
2018-05-31T10:32:04.444Z,47.29
2018-05-31T10:33:04.478Z,46.61
2018-05-31T10:34:04.511Z,46.12
2018-05-31T10:35:04.540Z,46.02
2018-05-31T10:36:04.569Z,44.76
2018-05-31T10:37:04.602Z,44.87
2018-05-31T10:38:04.638Z,46.04
2018-05-31T10:39:04.664Z,45.56
2018-05-31T10:40:04.696Z,45.26
2018-05-31T10:41:04.727Z,44.68
2018-05-31T10:42:04.758Z,44.19
2018-05-31T10:43:04.790Z,44.41
2018-05-31T10:44:04.820Z,44.29
2018-05-31T10:45:04.852Z,43.61
2018-05-31T10:46:04.884Z,43.53
2018-05-31T10:47:04.917Z,43.32
2018-05-31T10:48:04.946Z,43.43
2018-05-31T10:49:04.984Z,43.14
2018-05-31T10:50:05.010Z,43.24
2018-05-31T10:51:05.043Z,43.53
2018-05-31T10:52:05.076Z,43.07
2018-05-31T10:53:05.104Z,42.68
2018-05-31T10:54:05.138Z,41.60
2018-05-31T10:55:05.169Z,41.50
2018-05-31T10:56:05.203Z,40.82
2018-05-31T10:57:05.228Z,40.84
2018-05-31T10:58:05.260Z,40.55
2018-05-31T10:59:05.295Z,40.84
2018-05-31T11:00:05.332Z,40.86
2018-05-31T11:01:05.353Z,41.46
2018-05-31T11:02:05.388Z,40.88
2018-05-31T11:03:05.423Z,40.01
2018-05-31T11:04:05.447Z,39.64
2018-05-31T11:05:05.487Z,39.17
2018-05-31T11:06:05.512Z,37.43
2018-05-31T11:07:05.562Z,37.52
2018-05-31T11:08:05.585Z,39.47
2018-05-31T11:09:05.627Z,39.25
2018-05-31T11:10:05.648Z,37.94
2018-05-31T11:11:05.684Z,35.41
2018-05-31T11:12:05.713Z,33.53
2018-05-31T11:13:05.756Z,32.01
2018-05-31T11:14:05.786Z,29.99
2018-05-31T11:15:05.814Z,29.21
2018-05-31T11:16:05.848Z,28.94
2018-05-31T11:17:05.890Z,27.21
2018-05-31T11:18:05.922Z,26.62
2018-05-31T11:19:05.958Z,26.04
2018-05-31T11:20:05.989Z,25.44
2018-05-31T11:21:06.027Z,27.96
2018-05-31T11:22:06.066Z,26.62
2018-05-31T11:23:06.097Z,24.68
2018-05-31T11:24:06.134Z,24.11
2018-05-31T11:25:06.177Z,23.34
2018-05-31T11:26:06.211Z,23.34
2018-05-31T11:27:06.243Z,22.17
2018-05-31T11:28:06.278Z,22.75
2018-05-31T11:29:06.318Z,22.72
2018-05-31T11:30:06.359Z,23.32
2018-05-31T11:31:06.396Z,23.23
2018-05-31T11:32:06.429Z,22.14
2018-05-31T11:33:06.468Z,22.06
2018-05-31T11:34:06.509Z,22.07
2018-05-31T11:35:06.550Z,21.89
2018-05-31T11:36:06.582Z,21.00
2018-05-31T11:37:06.623Z,20.78
2018-05-31T11:38:06.660Z,21.27
2018-05-31T11:39:06.693Z,20.89
2018-05-31T11:40:06.739Z,20.51
2018-05-31T11:41:06.771Z,20.87
2018-05-31T11:42:06.814Z,22.14
2018-05-31T11:43:06.850Z,22.26
2018-05-31T11:44:06.892Z,24.07
2018-05-31T11:45:06.927Z,24.76
2018-05-31T11:46:06.963Z,23.19
2018-05-31T11:47:07.008Z,24.54
2018-05-31T11:48:07.044Z,26.56
2018-05-31T11:49:07.083Z,27.31
2018-05-31T11:50:07.132Z,28.96
2018-05-31T11:51:07.160Z,28.34
2018-05-31T11:52:07.194Z,28.72
2018-05-31T11:53:07.234Z,29.99
2018-05-31T11:54:07.272Z,29.68
2018-05-31T11:55:07.317Z,29.21
2018-05-31T11:56:07.340Z,26.84
2018-05-31T11:57:07.382Z,23.73
2018-05-31T11:58:07.422Z,23.16
2018-05-31T11:59:07.464Z,22.19
2018-05-31T12:00:07.495Z,21.61
2018-05-31T12:01:07.531Z,21.44
2018-05-31T12:02:07.566Z,20.84
2018-05-31T12:03:07.606Z,20.26
2018-05-31T12:04:07.647Z,18.99
2018-05-31T12:05:07.684Z,18.13
2018-05-31T12:06:07.731Z,18.62
2018-05-31T12:07:07.759Z,19.87
2018-05-31T12:08:07.808Z,19.39
2018-05-31T12:09:07.840Z,21.51
2018-05-31T12:10:07.876Z,23.62
2018-05-31T12:11:07.909Z,26.21
2018-05-31T12:12:07.979Z,27.37
2018-05-31T12:13:07.990Z,27.22
2018-05-31T12:14:08.033Z,24.22
2018-05-31T12:15:08.069Z,22.02
2018-05-31T12:16:08.106Z,20.07
2018-05-31T12:17:08.145Z,18.41
2018-05-31T12:18:08.190Z,18.35
2018-05-31T12:19:08.218Z,16.57
2018-05-31T12:20:08.260Z,16.19
2018-05-31T12:21:08.296Z,15.59
2018-05-31T12:22:08.334Z,16.36
2018-05-31T12:23:08.380Z,18.40
2018-05-31T12:24:08.414Z,20.76
2018-05-31T12:25:08.459Z,19.01
2018-05-31T12:26:08.495Z,20.53
2018-05-31T12:27:08.540Z,22.94
2018-05-31T12:28:08.570Z,22.89
2018-05-31T12:29:08.613Z,20.84
2018-05-31T12:30:08.656Z,19.89
2018-05-31T12:31:08.699Z,18.43
2018-05-31T12:32:08.757Z,17.44
2018-05-31T12:33:08.777Z,17.46
2018-05-31T12:34:08.807Z,18.79
2018-05-31T12:35:08.853Z,21.69
2018-05-31T12:36:08.897Z,23.90
2018-05-31T12:37:08.934Z,25.24
2018-05-31T12:38:08.967Z,26.40
2018-05-31T12:39:09.009Z,26.88
2018-05-31T12:40:09.060Z,24.97
2018-05-31T12:41:09.087Z,23.16
2018-05-31T12:42:09.118Z,21.03
2018-05-31T12:43:09.162Z,18.88
2018-05-31T12:44:09.199Z,17.93
2018-05-31T12:45:09.234Z,17.54
2018-05-31T12:46:09.278Z,16.96
2018-05-31T12:47:09.317Z,16.27
2018-05-31T12:48:09.362Z,17.22
2018-05-31T12:49:09.394Z,18.87
2018-05-31T12:50:09.428Z,20.51
2018-05-31T12:51:09.470Z,21.95
2018-05-31T12:52:09.507Z,22.91
2018-05-31T12:53:09.555Z,24.35